LERS/REU METAR and TAF weather

Enter ICAO airport designator
Station Type Date Time Source
LERS METAR 2021/05/14 22:00 UTC NOAA

LERS 142200Z 21003KT 170V240 CAVOK 16/12 Q1016


Station Type Date Time Source
LERS Decoded METAR 2021/05/14 22:00 UTC NOAA

Reus / Aeropuerto, Spain (LERS) 41-09N 001-10E 76M
May 14, 2021 - 06:00 PM EDT / 2021.05.14 2200 UTC
Wind: from the SSW (210 degrees) at 3 MPH (3 KT) (direction variable):0
Visibility: greater than 7 mile(s):0
Temperature: 60 F (16 C)
Dew Point: 53 F (12 C)
Relative Humidity: 77%
Pressure (altimeter): 30.00 in. Hg (1016 hPa)
ob: LERS 142200Z 21003KT 170V240 CAVOK 16/12 Q1016
cycle: 22

Station Type Date Time Source
LERS TAF 2021/05/14 21:27 UTC NOAA

TAF LERS 142000Z 1421/1521 26010KT 9999 FEW040 TX25/1513Z TN12/1506Z
BECMG 1422/1424 VRB04KT
BECMG 1509/1511 21010KT
BECMG 1518/1520 VRB04KT

Example: see airport list